Time;durP1;ratioP1;P1;durP2;ratioP2;P2;SDS_P1;SDS_P2;PMS_P1;PMS_P2;Temp;Humidity;BMP_temperature;BMP_pressure;BME280_temperature;BME280_humidity;BME280_pressure;Samples;Min_cycle;Max_cycle;Signal;HPM_P1;HPM_P2
2022/09/12 00:11:57;;;;;;;;;;;;;;;15.16;98.03;99230.47;5476951;23;1653;-61
2022/09/12 00:14:24;;;;;;;;;;;;;;;15.07;99.44;99233.94;5014220;28;877;-60
2022/09/12 00:16:51;;;;;;;;;;;;;;;14.99;100.00;99231.81;5014087;28;845;-59
2022/09/12 00:19:18;;;;;;;;;;;;;;;14.97;100.00;99237.06;5014020;28;901;-59
2022/09/12 00:21:45;;;;;;;;;;;;;;;14.94;100.00;99226.84;5013999;28;965;-58
2022/09/12 00:24:12;;;;;;;;;;;;;;;14.96;100.00;99224.38;4996283;28;1295;-58
2022/09/12 00:26:39;;;;;;;;;;;;;;;14.99;100.00;99224.25;5013752;28;1973;-58
2022/09/12 00:29:06;;;;;;;;;;;;;;;14.94;100.00;99224.06;5013862;28;854;-59
2022/09/12 00:31:33;;;;;;;;;;;;;;;14.86;100.00;99221.47;5013783;28;850;-58
2022/09/12 00:34:00;;;;;;;;;;;;;;;14.84;100.00;99200.91;5013706;28;811;-59
2022/09/12 00:36:28;;;;;;;;;;;;;;;14.88;100.00;99196.00;5013531;28;1041;-60
2022/09/12 00:38:56;;;;;;;;;;;;;;;15.00;100.00;99198.00;5013552;28;866;-60
2022/09/12 00:41:25;;;;;;;;;;;;;;;15.04;100.00;99178.38;4995894;28;862;-60
2022/09/12 00:43:53;;;;;;;;;;;;;;;15.10;100.00;99171.78;5013556;28;822;-60
2022/09/12 00:46:27;;;;;;;;;;;;;;;15.18;100.00;99160.44;5013390;28;1950;-62
2022/09/12 00:49:20;;;;;;;;;;;;;;;15.32;98.05;99160.72;5013356;28;854;-64
2022/09/12 00:51:50;;;;;;;;;;;;;;;15.52;95.81;99165.22;4983383;28;1264;-67
2022/09/12 00:54:20;;;;;;;;;;;;;;;15.55;95.56;99161.53;5013449;28;839;-67
2022/09/12 00:56:50;;;;;;;;;;;;;;;15.35;96.97;99152.72;5013378;28;779;-67
2022/09/12 00:59:27;;;;;;;;;;;;;;;15.15;98.46;99155.75;5013465;28;866;-67
2022/09/12 01:01:55;;;;;;;;;;;;;;;14.98;99.36;99161.50;5013125;28;839;-64
2022/09/12 01:04:24;;;;;;;;;;;;;;;14.83;100.00;99155.63;5013140;28;813;-65
2022/09/12 01:06:51;;;;;;;;;;;;;;;14.72;100.00;99155.16;5013566;28;1886;-64
2022/09/12 01:09:20;;;;;;;;;;;;;;;14.72;100.00;99157.16;5013163;28;858;-64
2022/09/12 01:11:49;;;;;;;;;;;;;;;14.75;100.00;99148.72;5012922;28;1223;-64
2022/09/12 01:14:16;;;;;;;;;;;;;;;14.85;100.00;99153.16;5012989;28;826;-64
2022/09/12 01:16:44;;;;;;;;;;;;;;;14.93;100.00;99145.34;5013203;28;803;-63
2022/09/12 01:19:34;;;;;;;;;;;;;;;14.97;99.38;99159.91;5012607;28;874;-65
2022/09/12 01:22:00;;;;;;;;;;;;;;;14.90;100.00;99171.28;5012845;28;794;-64
2022/09/12 01:24:33;;;;;;;;;;;;;;;14.84;100.00;99151.59;5012803;28;877;-64
2022/09/12 01:27:19;;;;;;;;;;;;;;;14.81;100.00;99151.72;5012604;28;1959;-64
2022/09/12 01:30:04;;;;;;;;;;;;;;;14.77;100.00;99165.75;5012635;28;830;-63
2022/09/12 01:32:47;;;;;;;;;;;;;;;14.73;100.00;99159.50;5012645;28;810;-62
2022/09/12 01:35:34;;;;;;;;;;;;;;;14.68;100.00;99155.28;5012748;28;811;-62
2022/09/12 01:38:13;;;;;;;;;;;;;;;14.65;100.00;99158.19;5012373;28;1047;-62
2022/09/12 01:41:07;;;;;;;;;;;;;;;14.60;100.00;99161.53;5012412;28;902;-63
2022/09/12 01:43:37;;;;;;;;;;;;;;;14.54;100.00;99158.50;5010300;28;1169;-64
2022/09/12 01:46:12;;;;;;;;;;;;;;;14.53;100.00;99158.94;5013117;28;1894;-63
2022/09/12 01:48:45;;;;;;;;;;;;;;;14.53;100.00;99165.28;5012446;28;787;-65
2022/09/12 01:51:35;;;;;;;;;;;;;;;14.56;100.00;99172.00;5012184;28;859;-64
2022/09/12 01:54:08;;;;;;;;;;;;;;;14.59;100.00;99173.88;5004430;28;1065;-65
2022/09/12 01:56:38;;;;;;;;;;;;;;;14.63;100.00;99169.75;5012345;28;811;-63
2022/09/12 01:59:05;;;;;;;;;;;;;;;14.70;100.00;99174.28;5012455;28;819;-66
2022/09/12 02:01:33;;;;;;;;;;;;;;;14.77;100.00;99173.31;5012226;28;869;-66
2022/09/12 02:04:12;;;;;;;;;;;;;;;14.81;100.00;99163.63;5012164;28;846;-67
2022/09/12 02:06:46;;;;;;;;;;;;;;;14.93;100.00;99164.06;5011991;28;1894;-65
2022/09/12 02:09:18;;;;;;;;;;;;;;;15.02;100.00;99153.81;5011964;28;834;-65
2022/09/12 02:11:46;;;;;;;;;;;;;;;15.09;100.00;99161.13;4989961;28;1331;-65
2022/09/12 02:14:20;;;;;;;;;;;;;;;15.14;100.00;99159.78;4992348;28;810;-67
2022/09/12 02:16:52;;;;;;;;;;;;;;;15.19;100.00;99154.44;4992365;28;889;-65
2022/09/12 02:19:23;;;;;;;;;;;;;;;15.26;100.00;99147.84;4992508;28;811;-67
2022/09/12 02:21:59;;;;;;;;;;;;;;;15.28;100.00;99140.59;4992230;28;866;-65
2022/09/12 02:24:31;;;;;;;;;;;;;;;15.27;100.00;99135.47;4992236;28;866;-65
2022/09/12 02:27:05;;;;;;;;;;;;;;;15.24;100.00;99123.22;4992165;28;1971;-65
2022/09/12 02:29:32;;;;;;;;;;;;;;;15.20;100.00;99122.56;4992186;28;815;-65
2022/09/12 02:32:04;;;;;;;;;;;;;;;15.12;100.00;99115.69;4991866;28;830;-65
2022/09/12 02:34:43;;;;;;;;;;;;;;;15.02;100.00;99125.97;4990698;28;1329;-65
2022/09/12 02:37:32;;;;;;;;;;;;;;;14.95;100.00;99131.00;4974803;28;1241;-65
2022/09/12 02:39:59;;;;;;;;;;;;;;;14.87;100.00;99128.47;4992122;28;863;-65
2022/09/12 02:42:26;;;;;;;;;;;;;;;14.83;100.00;99124.22;4992165;28;921;-65
2022/09/12 02:44:55;;;;;;;;;;;;;;;14.79;100.00;99116.00;4992136;28;1886;-65
2022/09/12 02:47:30;;;;;;;;;;;;;;;14.73;100.00;99119.81;4974479;28;1369;-66
2022/09/12 02:49:59;;;;;;;;;;;;;;;14.65;100.00;99113.69;4992319;28;855;-64
2022/09/12 02:52:26;;;;;;;;;;;;;;;14.56;100.00;99113.59;4992003;28;803;-64
2022/09/12 02:54:54;;;;;;;;;;;;;;;14.52;100.00;99110.13;4991905;28;874;-66
2022/09/12 02:57:22;;;;;;;;;;;;;;;14.46;100.00;99107.88;4991982;28;851;-66
2022/09/12 02:59:52;;;;;;;;;;;;;;;14.41;100.00;99121.56;4991924;28;858;-66
2022/09/12 03:02:21;;;;;;;;;;;;;;;14.36;100.00;99127.69;4992108;28;877;-65
2022/09/12 03:04:57;;;;;;;;;;;;;;;14.32;100.00;99122.25;4992453;28;1903;-64
2022/09/12 03:07:31;;;;;;;;;;;;;;;14.34;100.00;99135.69;4991792;28;1020;-65
2022/09/12 03:10:18;;;;;;;;;;;;;;;14.39;100.00;99140.69;4991721;28;826;-65
2022/09/12 03:12:51;;;;;;;;;;;;;;;14.48;100.00;99143.59;4993269;28;1405;-66
2022/09/12 03:15:18;;;;;;;;;;;;;;;14.54;100.00;99141.03;5012010;28;893;-66
2022/09/12 03:17:57;;;;;;;;;;;;;;;14.56;100.00;99149.75;5012203;28;842;-66
2022/09/12 03:20:45;;;;;;;;;;;;;;;14.58;100.00;99148.06;5011266;28;791;-66
2022/09/12 03:23:18;;;;;;;;;;;;;;;14.60;100.00;99153.19;5011637;28;803;-64
2022/09/12 03:25:48;;;;;;;;;;;;;;;14.61;100.00;99154.72;4993620;28;1942;-65
2022/09/12 03:28:16;;;;;;;;;;;;;;;14.65;100.00;99161.72;5012008;28;752;-66
2022/09/12 03:30:45;;;;;;;;;;;;;;;14.72;100.00;99157.94;5011520;28;850;-64
2022/09/12 03:33:21;;;;;;;;;;;;;;;14.80;100.00;99153.72;5011264;28;807;-64
2022/09/12 03:35:48;;;;;;;;;;;;;;;14.88;100.00;99143.91;5011201;28;858;-66
2022/09/12 03:38:15;;;;;;;;;;;;;;;14.96;100.00;99140.91;5011080;28;838;-65
2022/09/12 03:40:42;;;;;;;;;;;;;;;14.99;100.00;99149.13;5011432;28;851;-64
2022/09/12 03:43:10;;;;;;;;;;;;;;;14.98;100.00;99155.94;5013947;28;827;-65
2022/09/12 03:45:37;;;;;;;;;;;;;;;14.98;100.00;99147.56;4996904;28;1952;-64
2022/09/12 03:48:05;;;;;;;;;;;;;;;15.03;100.00;99154.56;5014544;28;799;-64
2022/09/12 03:50:32;;;;;;;;;;;;;;;15.03;100.00;99152.56;5014534;28;806;-64
2022/09/12 03:52:59;;;;;;;;;;;;;;;15.03;100.00;99143.44;5014465;28;890;-64
2022/09/12 03:55:25;;;;;;;;;;;;;;;14.98;100.00;99135.66;5014420;28;877;-65
2022/09/12 03:57:53;;;;;;;;;;;;;;;14.96;100.00;99136.13;5014427;28;853;-65
2022/09/12 04:00:21;;;;;;;;;;;;;;;14.94;100.00;99137.78;5014302;28;826;-65
2022/09/12 04:02:52;;;;;;;;;;;;;;;14.93;100.00;99134.22;5014366;28;827;-65
2022/09/12 04:05:19;;;;;;;;;;;;;;;14.91;100.00;99136.66;5014169;28;1961;-64
2022/09/12 04:07:45;;;;;;;;;;;;;;;14.89;100.00;99136.34;5014154;28;892;-65
2022/09/12 04:10:13;;;;;;;;;;;;;;;14.92;100.00;99151.38;4996572;28;1308;-64
2022/09/12 04:12:40;;;;;;;;;;;;;;;14.92;100.00;99152.16;5013922;28;1390;-65
2022/09/12 04:15:08;;;;;;;;;;;;;;;14.89;100.00;99153.03;5014250;28;818;-65
2022/09/12 04:17:35;;;;;;;;;;;;;;;14.98;100.00;99157.91;5014041;28;831;-64
2022/09/12 04:20:01;;;;;;;;;;;;;;;15.12;100.00;99168.56;5013964;28;803;-64
2022/09/12 04:22:28;;;;;;;;;;;;;;;15.27;100.00;99169.63;5013973;28;873;-64
2022/09/12 04:24:55;;;;;;;;;;;;;;;15.42;100.00;99169.94;5013877;28;1918;-65
2022/09/12 04:27:22;;;;;;;;;;;;;;;15.53;100.00;99161.19;5013812;28;850;-64
2022/09/12 04:29:49;;;;;;;;;;;;;;;15.66;100.00;99156.38;5014003;28;854;-64
2022/09/12 04:32:17;;;;;;;;;;;;;;;15.73;100.00;99155.34;4996184;28;1297;-64
2022/09/12 04:34:45;;;;;;;;;;;;;;;15.71;100.00;99147.44;4996058;28;1276;-63
2022/09/12 04:37:12;;;;;;;;;;;;;;;15.73;100.00;99155.34;5013741;28;806;-64
2022/09/12 04:39:40;;;;;;;;;;;;;;;15.77;100.00;99155.22;5013948;28;842;-64
2022/09/12 04:42:06;;;;;;;;;;;;;;;15.89;100.00;99162.72;5014057;28;771;-64
2022/09/12 04:44:33;;;;;;;;;;;;;;;15.95;100.00;99152.56;5014247;28;799;-64
2022/09/12 04:46:59;;;;;;;;;;;;;;;15.92;100.00;99159.81;5013729;28;1851;-64
2022/09/12 04:49:26;;;;;;;;;;;;;;;15.86;100.00;99158.06;5013723;28;795;-64
2022/09/12 04:51:56;;;;;;;;;;;;;;;15.79;100.00;99161.91;5013306;28;810;-64
2022/09/12 04:54:23;;;;;;;;;;;;;;;15.81;100.00;99167.00;5012953;28;818;-63
2022/09/12 04:56:51;;;;;;;;;;;;;;;15.91;100.00;99179.78;5013431;28;788;-64
2022/09/12 04:59:18;;;;;;;;;;;;;;;16.00;100.00;99176.25;5013256;28;807;-64
2022/09/12 05:01:45;;;;;;;;;;;;;;;16.09;100.00;99162.41;5013205;28;898;-64
2022/09/12 05:04:12;;;;;;;;;;;;;;;16.19;100.00;99166.78;5013177;28;886;-64
2022/09/12 05:06:40;;;;;;;;;;;;;;;16.26;100.00;99157.38;5013015;28;1882;-63
2022/09/12 05:09:10;;;;;;;;;;;;;;;16.27;100.00;99153.34;5012854;28;1073;-64
2022/09/12 05:11:37;;;;;;;;;;;;;;;16.44;100.00;99151.09;5012979;28;1228;-63
2022/09/12 05:14:05;;;;;;;;;;;;;;;16.66;100.00;99162.97;5013003;28;858;-63
2022/09/12 05:16:31;;;;;;;;;;;;;;;16.76;100.00;99154.63;5012871;28;842;-63
2022/09/12 05:18:59;;;;;;;;;;;;;;;16.62;100.00;99162.34;4995285;28;1173;-64
2022/09/12 05:21:26;;;;;;;;;;;;;;;16.56;100.00;99166.97;5012812;28;874;-63
2022/09/12 05:23:54;;;;;;;;;;;;;;;16.65;100.00;99166.22;5012774;28;811;-63
2022/09/12 05:26:21;;;;;;;;;;;;;;;16.78;100.00;99174.47;5012688;28;1918;-64
2022/09/12 05:28:49;;;;;;;;;;;;;;;16.96;100.00;99177.34;5012727;28;803;-65
2022/09/12 05:31:19;;;;;;;;;;;;;;;17.19;100.00;99176.00;5012640;28;880;-65
2022/09/12 05:33:47;;;;;;;;;;;;;;;17.48;100.00;99167.19;5012621;28;807;-64
2022/09/12 05:36:16;;;;;;;;;;;;;;;17.68;100.00;99171.53;5012618;28;859;-65
2022/09/12 05:38:44;;;;;;;;;;;;;;;17.83;99.23;99166.88;5012552;28;799;-64
2022/09/12 05:41:12;;;;;;;;;;;;;;;17.92;97.79;99171.69;5012497;28;855;-64
2022/09/12 05:43:41;;;;;;;;;;;;;;;18.02;96.15;99167.63;5012438;28;882;-64
2022/09/12 05:46:09;;;;;;;;;;;;;;;18.25;95.29;99168.19;5012295;28;1957;-64
2022/09/12 05:48:37;;;;;;;;;;;;;;;18.44;93.59;99169.69;5013083;28;831;-62
2022/09/12 05:51:08;;;;;;;;;;;;;;;18.59;91.35;99169.03;5013068;28;790;-63
2022/09/12 05:53:36;;;;;;;;;;;;;;;18.81;91.42;99163.19;4994691;28;1320;-63
2022/09/12 05:56:04;;;;;;;;;;;;;;;19.18;90.75;99160.91;5012200;28;870;-63
2022/09/12 05:58:31;;;;;;;;;;;;;;;19.63;86.96;99170.25;4994634;28;1470;-64
2022/09/12 06:01:01;;;;;;;;;;;;;;;19.94;85.37;99160.66;5012189;28;844;-64
2022/09/12 06:03:29;;;;;;;;;;;;;;;19.92;82.18;99165.97;5012349;28;890;-64
2022/09/12 06:05:56;;;;;;;;;;;;;;;19.73;81.70;99159.75;5011100;28;1961;-64
2022/09/12 06:08:23;;;;;;;;;;;;;;;19.63;84.22;99164.66;5012317;28;837;-64
2022/09/12 06:10:49;;;;;;;;;;;;;;;19.59;86.11;99162.03;5012143;28;1406;-63
2022/09/12 06:13:16;;;;;;;;;;;;;;;19.67;86.13;99164.44;5011753;28;1238;-64
2022/09/12 06:15:47;;;;;;;;;;;;;;;19.75;86.68;99174.81;4994345;28;1197;-63
2022/09/12 06:18:14;;;;;;;;;;;;;;;19.86;85.70;99167.88;5011961;28;822;-62
2022/09/12 06:20:41;;;;;;;;;;;;;;;19.91;83.57;99164.44;4994284;28;1335;-63
2022/09/12 06:23:08;;;;;;;;;;;;;;;20.02;82.66;99155.44;5011829;28;837;-63
2022/09/12 06:25:34;;;;;;;;;;;;;;;20.09;81.33;99161.41;5011782;28;1973;-64
2022/09/12 06:28:01;;;;;;;;;;;;;;;20.19;74.38;99157.25;5011839;28;803;-63
2022/09/12 06:30:28;;;;;;;;;;;;;;;20.28;69.68;99166.84;5011789;28;806;-63
2022/09/12 06:32:55;;;;;;;;;;;;;;;20.74;67.72;99160.69;5011753;28;886;-63
2022/09/12 06:35:22;;;;;;;;;;;;;;;21.51;67.73;99162.25;5011687;28;807;-62
2022/09/12 06:37:49;;;;;;;;;;;;;;;22.47;62.66;99165.22;5011647;28;791;-62
2022/09/12 06:40:16;;;;;;;;;;;;;;;23.02;59.26;99162.03;5011748;28;862;-62
2022/09/12 06:42:43;;;;;;;;;;;;;;;22.99;57.33;99148.91;5011679;28;838;-61
2022/09/12 06:45:10;;;;;;;;;;;;;;;22.88;56.47;99148.09;5011581;28;1894;-62
2022/09/12 06:47:37;;;;;;;;;;;;;;;23.31;58.59;99145.25;4993995;28;1181;-62
2022/09/12 06:50:04;;;;;;;;;;;;;;;24.22;60.11;99149.84;5011612;28;862;-62
2022/09/12 06:52:31;;;;;;;;;;;;;;;24.85;62.26;99159.81;5011540;28;894;-62
2022/09/12 06:54:57;;;;;;;;;;;;;;;24.77;56.91;99150.31;4993918;28;1331;-61
2022/09/12 07:00:27;;;;;;;;;;;;;;;24.70;52.45;99159.31;5011563;28;602;-62
2022/09/12 07:02:55;;;;;;;;;;;;;;;24.56;53.34;99164.75;5011433;28;877;-61
2022/09/12 07:05:21;;;;;;;;;;;;;;;24.75;55.40;99170.63;5011379;28;1922;-62
2022/09/12 07:07:48;;;;;;;;;;;;;;;25.18;52.78;99166.69;5011452;28;886;-61
2022/09/12 07:10:15;;;;;;;;;;;;;;;25.25;56.38;99169.75;5011398;28;1022;-62
2022/09/12 07:38:38;;;;;;;;;;;;;;;23.20;54.19;99140.34;5014922;28;598;-61
2022/09/12 07:44:07;;;;;;;;;;;;;;;23.66;51.36;99130.72;5014877;28;597;-62
2022/09/12 07:46:34;;;;;;;;;;;;;;;24.14;50.72;99129.03;5014960;28;1977;-61
2022/09/12 07:49:01;;;;;;;;;;;;;;;24.63;50.51;99138.78;4997216;28;878;-61
2022/09/12 07:51:30;;;;;;;;;;;;;;;25.18;51.42;99136.34;5014848;28;890;-61
2022/09/12 07:53:59;;;;;;;;;;;;;;;25.75;50.18;99139.66;5014500;28;803;-60
2022/09/12 07:56:27;;;;;;;;;;;;;;;25.54;49.11;99132.84;5014446;28;862;-62
2022/09/12 07:58:54;;;;;;;;;;;;;;;25.79;53.03;99139.38;5014483;28;855;-61
2022/09/12 08:01:23;;;;;;;;;;;;;;;26.37;52.69;99147.75;5014421;28;869;-61
2022/09/12 08:03:53;;;;;;;;;;;;;;;26.70;50.24;99131.00;5014150;28;818;-61
2022/09/12 08:06:25;;;;;;;;;;;;;;;26.59;47.18;99124.13;5014256;28;1894;-61
2022/09/12 08:12:01;;;;;;;;;;;;;;;25.64;47.23;99129.19;5014538;28;916;-61
2022/09/12 08:14:28;;;;;;;;;;;;;;;25.68;49.85;99120.41;5014112;28;862;-62
2022/09/12 08:17:09;;;;;;;;;;;;;;;25.76;47.30;99121.41;4996366;28;866;-61
2022/09/12 08:19:38;;;;;;;;;;;;;;;25.55;46.23;99125.91;5014058;28;885;-62
2022/09/12 08:22:05;;;;;;;;;;;;;;;25.28;47.24;99136.81;5013915;28;799;-62
2022/09/12 08:24:34;;;;;;;;;;;;;;;25.95;47.05;99132.13;5013738;28;1407;-61
2022/09/12 08:27:00;;;;;;;;;;;;;;;25.67;48.98;99138.69;5013871;28;1918;-60
2022/09/12 08:29:26;;;;;;;;;;;;;;;25.86;53.04;99133.94;5012864;28;831;-62
2022/09/12 08:31:52;;;;;;;;;;;;;;;24.70;50.19;99122.59;5013783;28;873;-61
2022/09/12 08:34:20;;;;;;;;;;;;;;;23.39;50.76;99129.41;5013596;28;818;-62
2022/09/12 08:36:46;;;;;;;;;;;;;;;22.61;51.96;99131.28;5013703;28;776;-62
2022/09/12 08:39:23;;;;;;;;;;;;;;;22.15;52.70;99123.75;5013645;28;823;-62
2022/09/12 08:42:25;;;;;;;;;;;;;;;21.97;53.06;99122.06;5013646;28;819;-62
2022/09/12 08:47:55;;;;;;;;;;;;;;;23.68;51.71;99118.94;5013586;28;606;-61
2022/09/12 08:50:23;;;;;;;;;;;;;;;24.68;49.49;99111.81;5013449;28;854;-61
2022/09/12 08:53:01;;;;;;;;;;;;;;;25.44;49.57;99104.88;5013519;28;807;-61
2022/09/12 08:58:35;;;;;;;;;;;;;;;25.82;48.82;99112.88;5013325;28;641;-61
2022/09/12 09:01:14;;;;;;;;;;;;;;;25.70;45.63;99114.25;5013255;28;788;-61
2022/09/12 09:03:49;;;;;;;;;;;;;;;25.55;47.83;99094.78;5013013;28;1070;-61
2022/09/12 09:06:29;;;;;;;;;;;;;;;25.76;45.80;99098.75;5013089;28;1878;-61
2022/09/12 09:09:16;;;;;;;;;;;;;;;25.86;45.54;99094.31;5013099;28;810;-62
2022/09/12 09:11:47;;;;;;;;;;;;;;;25.60;45.57;99088.31;5013192;28;901;-62
2022/09/12 09:16:59;;;;;;;;;;;;;;;25.00;45.39;99091.69;5012969;28;630;-61
2022/09/12 09:22:35;;;;;;;;;;;;;;;25.06;46.00;99093.19;5013055;28;622;-62
2022/09/12 09:25:05;;;;;;;;;;;;;;;25.34;44.75;99097.22;4982300;28;1315;-63
2022/09/12 09:27:56;;;;;;;;;;;;;;;25.33;44.89;99084.34;4975764;28;1210;-63
2022/09/12 09:30:22;;;;;;;;;;;;;;;25.29;45.31;99089.53;4993063;28;867;-62
2022/09/12 09:32:55;;;;;;;;;;;;;;;25.18;46.43;99090.34;4993007;28;806;-62
2022/09/12 09:35:40;;;;;;;;;;;;;;;25.43;45.17;99086.38;4993030;28;815;-62
2022/09/12 09:38:17;;;;;;;;;;;;;;;25.31;45.40;99084.88;4992927;28;850;-62
2022/09/12 09:41:14;;;;;;;;;;;;;;;25.52;44.22;99078.84;4992780;28;859;-62
2022/09/12 09:43:41;;;;;;;;;;;;;;;25.78;43.29;99082.03;4980990;28;1524;-62
2022/09/12 09:49:16;;;;;;;;;;;;;;;25.57;43.37;99078.06;4992888;28;614;-62
2022/09/12 09:51:45;;;;;;;;;;;;;;;25.80;43.53;99084.34;4992680;28;862;-62
2022/09/12 09:54:34;;;;;;;;;;;;;;;25.95;42.58;99078.34;4992722;28;886;-62
2022/09/12 09:57:02;;;;;;;;;;;;;;;25.95;41.71;99079.09;4975146;28;1208;-62
2022/09/12 09:59:30;;;;;;;;;;;;;;;25.84;42.14;99076.34;4991355;28;1332;-63
2022/09/12 10:02:22;;;;;;;;;;;;;;;25.80;41.82;99070.19;4992479;28;807;-62
2022/09/12 10:05:02;;;;;;;;;;;;;;;25.83;41.19;99080.44;4991471;28;1165;-62
2022/09/12 10:07:31;;;;;;;;;;;;;;;26.03;41.07;99065.13;4975070;28;1332;-63
2022/09/12 10:22:15;;;;;;;;;;;;;;;25.53;41.70;99095.31;4992622;28;669;-62
2022/09/12 10:24:47;;;;;;;;;;;;;;;26.00;42.30;99081.09;5002151;28;1331;-62
2022/09/12 10:27:19;;;;;;;;;;;;;;;26.62;41.19;99077.72;5011960;28;1914;-63
2022/09/12 10:30:06;;;;;;;;;;;;;;;26.82;39.17;99084.19;5011840;28;807;-62
2022/09/12 10:32:38;;;;;;;;;;;;;;;25.63;39.94;99099.34;5011627;28;877;-63
2022/09/12 10:35:17;;;;;;;;;;;;;;;25.81;40.79;99097.19;5010582;28;1453;-62
2022/09/12 10:37:53;;;;;;;;;;;;;;;26.73;39.55;99090.22;5011906;28;838;-61
2022/09/12 10:40:27;;;;;;;;;;;;;;;26.98;38.25;99088.91;4994147;28;1217;-62
2022/09/12 10:42:56;;;;;;;;;;;;;;;27.00;38.30;99080.63;5011936;28;938;-61
2022/09/12 10:45:25;;;;;;;;;;;;;;;27.32;40.68;99091.34;5011690;28;1886;-61
2022/09/12 10:47:53;;;;;;;;;;;;;;;27.79;40.30;99085.25;5011880;28;885;-62
2022/09/12 10:50:22;;;;;;;;;;;;;;;28.14;39.33;99079.81;5011733;28;853;-63
2022/09/12 10:52:49;;;;;;;;;;;;;;;28.29;35.97;99089.38;5014443;28;858;-63
2022/09/12 10:55:16;;;;;;;;;;;;;;;28.09;37.46;99092.81;5015537;28;913;-63
2022/09/12 10:57:55;;;;;;;;;;;;;;;28.10;35.68;99082.97;5015497;28;850;-62
2022/09/12 11:00:26;;;;;;;;;;;;;;;27.76;35.56;99083.50;5015471;28;890;-62
2022/09/12 11:02:57;;;;;;;;;;;;;;;27.31;35.61;99089.03;5015840;28;792;-62
2022/09/12 11:05:42;;;;;;;;;;;;;;;27.01;35.46;99087.84;5015301;28;1882;-61
2022/09/12 11:08:14;;;;;;;;;;;;;;;27.05;36.13;99088.28;4998076;28;1224;-62
2022/09/12 11:11:04;;;;;;;;;;;;;;;27.19;36.41;99092.00;5015383;28;1029;-62
2022/09/12 11:14:05;;;;;;;;;;;;;;;27.17;34.82;99096.69;4985558;28;1205;-62
2022/09/12 11:16:41;;;;;;;;;;;;;;;27.15;35.14;99088.69;5015157;28;854;-62
2022/09/12 11:19:21;;;;;;;;;;;;;;;27.48;34.33;99086.72;5015397;28;788;-62
2022/09/12 11:22:00;;;;;;;;;;;;;;;27.52;33.37;99075.06;5015602;28;866;-62
2022/09/12 11:24:30;;;;;;;;;;;;;;;27.44;33.45;99083.44;5014871;28;1259;-62
2022/09/12 11:30:07;;;;;;;;;;;;;;;27.83;33.59;99093.47;5014811;28;1285;-62
2022/09/12 11:32:37;;;;;;;;;;;;;;;27.80;33.32;99089.63;5014934;28;854;-64
2022/09/12 11:35:12;;;;;;;;;;;;;;;27.98;34.15;99081.63;5014830;28;810;-62
2022/09/12 11:37:42;;;;;;;;;;;;;;;28.43;33.36;99078.78;5014875;28;878;-63
2022/09/12 11:43:37;;;;;;;;;;;;;;;29.16;32.26;99081.56;5014798;28;625;-62
2022/09/12 11:46:11;;;;;;;;;;;;;;;29.21;31.18;99084.28;5014598;28;1910;-62
2022/09/12 11:48:55;;;;;;;;;;;;;;;29.05;31.13;99088.97;5014647;28;859;-63
2022/09/12 11:51:27;;;;;;;;;;;;;;;29.17;30.38;99088.75;5014591;28;846;-63
2022/09/12 11:54:13;;;;;;;;;;;;;;;29.32;29.77;99083.28;5014521;28;850;-63
2022/09/12 11:56:49;;;;;;;;;;;;;;;29.41;29.84;99082.06;5014444;28;1131;-62
2022/09/12 11:59:23;;;;;;;;;;;;;;;29.39;30.21;99082.59;5014616;28;831;-62
2022/09/12 12:01:52;;;;;;;;;;;;;;;28.54;29.57;99075.00;5014380;28;843;-63
2022/09/12 12:04:25;;;;;;;;;;;;;;;28.00;31.10;99082.63;5014600;28;819;-63
2022/09/12 12:07:07;;;;;;;;;;;;;;;28.03;30.84;99070.16;4996598;28;1890;-63
2022/09/12 12:09:35;;;;;;;;;;;;;;;28.62;30.93;99075.88;5014560;28;843;-64
2022/09/12 12:12:05;;;;;;;;;;;;;;;28.10;31.28;99088.63;4996646;28;1292;-63
2022/09/12 12:14:44;;;;;;;;;;;;;;;28.47;32.41;99081.31;5014154;28;807;-63
2022/09/12 12:17:22;;;;;;;;;;;;;;;28.74;31.50;99082.09;5014121;28;849;-63
2022/09/12 12:20:08;;;;;;;;;;;;;;;28.58;31.40;99086.03;5014038;28;925;-64
2022/09/12 12:22:50;;;;;;;;;;;;;;;28.20;31.80;99089.75;5014050;28;846;-64
2022/09/12 12:25:41;;;;;;;;;;;;;;;28.25;33.23;99083.25;5013422;28;1976;-64
2022/09/12 12:28:32;;;;;;;;;;;;;;;27.23;34.00;99080.38;4996222;28;1364;-64
2022/09/12 12:31:00;;;;;;;;;;;;;;;28.58;33.15;99074.66;4996247;28;1348;-64
2022/09/12 12:33:26;;;;;;;;;;;;;;;29.77;32.60;99079.44;5013749;28;843;-64
2022/09/12 12:35:59;;;;;;;;;;;;;;;30.50;30.51;99085.41;5013769;28;918;-64
2022/09/12 12:38:31;;;;;;;;;;;;;;;29.97;29.40;99077.16;5013740;28;823;-64
2022/09/12 12:41:16;;;;;;;;;;;;;;;28.40;30.10;99071.34;5013639;28;878;-63
2022/09/12 12:43:46;;;;;;;;;;;;;;;27.18;32.87;99073.44;4996287;28;1437;-64
2022/09/12 12:46:14;;;;;;;;;;;;;;;27.88;30.48;99075.59;5013464;28;1969;-65
2022/09/12 12:49:05;;;;;;;;;;;;;;;28.64;30.01;99072.50;5013876;28;795;-64
2022/09/12 12:51:35;;;;;;;;;;;;;;;29.43;29.75;99068.78;5005498;28;1173;-63
2022/09/12 13:06:35;;;;;;;;;;;;;;;28.76;30.33;99078.72;5013419;28;1965;-63
2022/09/12 13:09:18;;;;;;;;;;;;;;;29.39;29.98;99085.44;5013072;28;1085;-63
2022/09/12 13:12:19;;;;;;;;;;;;;;;28.52;30.85;99082.53;5013356;28;936;-62
2022/09/12 13:14:48;;;;;;;;;;;;;;;27.99;30.45;99080.31;5012498;28;1030;-62
2022/09/12 13:17:25;;;;;;;;;;;;;;;27.17;31.97;99086.09;5013020;28;838;-62
2022/09/12 13:32:22;;;;;;;;;;;;;;;29.13;30.30;99085.50;4993409;28;617;-63
2022/09/12 13:34:52;;;;;;;;;;;;;;;28.66;30.08;99079.16;4975836;28;1213;-63
2022/09/12 13:40:59;;;;;;;;;;;;;;;28.63;30.79;99080.22;4981486;28;1158;-65
2022/09/12 14:01:43;;;;;;;;;;;;;;;27.61;31.29;99078.31;4992830;28;772;-65
2022/09/12 14:07:19;;;;;;;;;;;;;;;26.94;32.02;99077.09;4992580;28;1886;-64
2022/09/12 14:09:55;;;;;;;;;;;;;;;26.77;32.46;99079.38;4992431;28;864;-65
2022/09/12 14:15:37;;;;;;;;;;;;;;;25.60;34.76;99085.47;4992713;28;685;-65
2022/09/12 14:18:04;;;;;;;;;;;;;;;25.28;35.23;99085.91;4992367;28;830;-64
2022/09/12 14:23:35;;;;;;;;;;;;;;;26.05;34.61;99088.00;4992347;28;669;-64
2022/09/12 14:26:02;;;;;;;;;;;;;;;26.61;34.02;99096.03;4991628;28;2254;-64
2022/09/12 14:28:33;;;;;;;;;;;;;;;26.30;34.03;99079.56;4992015;28;796;-65
2022/09/12 14:31:03;;;;;;;;;;;;;;;25.87;34.58;99098.66;4974753;28;1325;-65
2022/09/12 14:33:45;;;;;;;;;;;;;;;25.51;34.05;99102.78;4992068;28;855;-63
2022/09/12 14:36:17;;;;;;;;;;;;;;;25.20;34.00;99097.03;4992260;28;867;-64
2022/09/12 14:51:00;;;;;;;;;;;;;;;24.51;36.03;99100.53;4992351;28;677;-63
2022/09/12 14:53:32;;;;;;;;;;;;;;;24.60;36.20;99096.66;4992041;28;823;-62
2022/09/12 15:08:14;;;;;;;;;;;;;;;26.40;34.45;99092.09;4991986;28;617;-63
2022/09/12 15:10:41;;;;;;;;;;;;;;;26.45;33.73;99086.34;4991897;28;908;-64
2022/09/12 15:13:13;;;;;;;;;;;;;;;26.24;33.91;99086.06;4991861;28;858;-63
2022/09/12 15:15:59;;;;;;;;;;;;;;;25.77;34.17;99088.97;4991765;28;857;-64
2022/09/12 15:18:27;;;;;;;;;;;;;;;25.30;34.79;99091.81;4991481;28;1051;-63
2022/09/12 15:21:00;;;;;;;;;;;;;;;24.77;35.33;99082.50;4991752;28;966;-64
2022/09/12 15:23:29;;;;;;;;;;;;;;;24.46;35.89;99081.53;4991741;28;799;-62
2022/09/12 15:25:58;;;;;;;;;;;;;;;24.34;36.58;99094.13;4991439;28;1882;-62
2022/09/12 15:28:25;;;;;;;;;;;;;;;24.20;36.48;99087.47;4991602;28;870;-63
2022/09/12 15:30:55;;;;;;;;;;;;;;;24.09;36.90;99087.44;5000167;28;1269;-62
2022/09/12 15:33:53;;;;;;;;;;;;;;;23.96;37.29;99085.16;5011280;28;885;-62
2022/09/12 15:39:24;;;;;;;;;;;;;;;23.68;37.59;99099.19;5009249;28;1130;-63
2022/09/12 15:41:53;;;;;;;;;;;;;;;23.63;37.91;99100.75;4997432;28;1182;-62
2022/09/12 15:44:19;;;;;;;;;;;;;;;23.58;37.69;99095.88;5015116;28;799;-62
2022/09/12 15:46:45;;;;;;;;;;;;;;;23.49;38.07;99101.72;5014856;28;1967;-63
2022/09/12 15:49:11;;;;;;;;;;;;;;;23.38;38.04;99096.81;5014954;28;847;-63
2022/09/12 15:51:38;;;;;;;;;;;;;;;23.25;38.49;99097.31;4996987;28;1190;-63
2022/09/12 15:54:05;;;;;;;;;;;;;;;23.15;38.97;99102.41;4996972;28;880;-63
2022/09/12 16:06:04;;;;;;;;;;;;;;;22.60;40.69;99107.22;5014848;28;1957;-63
2022/09/12 16:08:53;;;;;;;;;;;;;;;22.53;40.79;99107.69;4973085;28;1022;-62
2022/09/12 16:11:37;;;;;;;;;;;;;;;22.49;40.84;99112.78;4973320;28;978;-63
2022/09/12 16:14:35;;;;;;;;;;;;;;;22.42;41.62;99113.22;4973257;28;977;-62
2022/09/12 16:17:03;;;;;;;;;;;;;;;22.28;41.46;99109.31;4973106;28;859;-62